sensor_id;sensor_type;location;lat;lon;timestamp;temperature;humidity
71627;DHT22;59475;52.464;13.590;2023-03-26T00:00:34;7.74;91.25
71627;DHT22;59475;52.464;13.590;2023-03-26T00:02:59;7.68;91.16
71627;DHT22;59475;52.464;13.590;2023-03-26T00:05:25;7.67;91.19
71627;DHT22;59475;52.464;13.590;2023-03-26T00:07:50;7.72;90.70
71627;DHT22;59475;52.464;13.590;2023-03-26T00:10:16;7.71;90.88
71627;DHT22;59475;52.464;13.590;2023-03-26T00:12:41;7.71;90.84
71627;DHT22;59475;52.464;13.590;2023-03-26T00:15:07;7.72;90.59
71627;DHT22;59475;52.464;13.590;2023-03-26T00:17:34;7.75;90.72
71627;DHT22;59475;52.464;13.590;2023-03-26T00:20:00;7.74;90.57
71627;DHT22;59475;52.464;13.590;2023-03-26T00:22:25;7.75;90.61
71627;DHT22;59475;52.464;13.590;2023-03-26T00:24:51;7.75;90.20
71627;DHT22;59475;52.464;13.590;2023-03-26T00:27:16;7.74;90.20
71627;DHT22;59475;52.464;13.590;2023-03-26T00:29:42;7.71;90.19
71627;DHT22;59475;52.464;13.590;2023-03-26T00:32:07;7.65;90.32
71627;DHT22;59475;52.464;13.590;2023-03-26T00:34:33;7.62;90.36
71627;DHT22;59475;52.464;13.590;2023-03-26T00:36:58;7.67;89.99
71627;DHT22;59475;52.464;13.590;2023-03-26T00:39:27;7.71;89.57
71627;DHT22;59475;52.464;13.590;2023-03-26T00:41:53;7.71;89.68
71627;DHT22;59475;52.464;13.590;2023-03-26T00:44:19;7.69;89.52
71627;DHT22;59475;52.464;13.590;2023-03-26T00:46:45;7.69;89.08
71627;DHT22;59475;52.464;13.590;2023-03-26T00:49:11;7.72;89.43
71627;DHT22;59475;52.464;13.590;2023-03-26T00:51:41;7.74;89.28
71627;DHT22;59475;52.464;13.590;2023-03-26T00:54:07;7.67;89.24
71627;DHT22;59475;52.464;13.590;2023-03-26T00:56:34;7.71;88.73
71627;DHT22;59475;52.464;13.590;2023-03-26T00:59:00;7.71;88.73
71627;DHT22;59475;52.464;13.590;2023-03-26T01:01:26;7.71;88.83
71627;DHT22;59475;52.464;13.590;2023-03-26T01:03:53;7.74;88.76
71627;DHT22;59475;52.464;13.590;2023-03-26T01:06:30;7.72;88.76
71627;DHT22;59475;52.464;13.590;2023-03-26T01:09:16;7.69;88.93
71627;DHT22;59475;52.464;13.590;2023-03-26T01:11:43;7.71;88.89
71627;DHT22;59475;52.464;13.590;2023-03-26T01:14:12;7.71;88.86
71627;DHT22;59475;52.464;13.590;2023-03-26T01:16:43;7.72;89.10
71627;DHT22;59475;52.464;13.590;2023-03-26T01:19:22;7.71;89.12
71627;DHT22;59475;52.464;13.590;2023-03-26T01:21:50;7.75;88.76
71627;DHT22;59475;52.464;13.590;2023-03-26T01:24:15;7.69;89.01
71627;DHT22;59475;52.464;13.590;2023-03-26T01:27:10;7.67;89.38
71627;DHT22;59475;52.464;13.590;2023-03-26T01:35:27;7.59;90.45
71627;DHT22;59475;52.464;13.590;2023-03-26T01:40:59;7.50;91.51
71627;DHT22;59475;52.464;13.590;2023-03-26T01:45:59;7.44;91.45
71627;DHT22;59475;52.464;13.590;2023-03-26T01:48:30;7.41;92.09
71627;DHT22;59475;52.464;13.590;2023-03-26T01:50:57;7.43;92.21
71627;DHT22;59475;52.464;13.590;2023-03-26T01:53:23;7.38;91.70
71627;DHT22;59475;52.464;13.590;2023-03-26T02:02:32;7.34;91.73
71627;DHT22;59475;52.464;13.590;2023-03-26T02:05:10;7.27;92.03
71627;DHT22;59475;52.464;13.590;2023-03-26T02:07:53;7.24;92.65
71627;DHT22;59475;52.464;13.590;2023-03-26T02:10:32;7.20;92.49
71627;DHT22;59475;52.464;13.590;2023-03-26T02:12:59;7.16;92.49
71627;DHT22;59475;52.464;13.590;2023-03-26T02:15:24;7.12;92.42
71627;DHT22;59475;52.464;13.590;2023-03-26T02:17:50;7.12;92.66
71627;DHT22;59475;52.464;13.590;2023-03-26T02:20:18;7.09;92.56
71627;DHT22;59475;52.464;13.590;2023-03-26T02:22:44;7.07;91.93
71627;DHT22;59475;52.464;13.590;2023-03-26T02:25:15;7.14;91.98
71627;DHT22;59475;52.464;13.590;2023-03-26T02:27:41;7.13;91.94
71627;DHT22;59475;52.464;13.590;2023-03-26T02:30:10;7.10;91.83
71627;DHT22;59475;52.464;13.590;2023-03-26T02:32:35;7.10;92.05
71627;DHT22;59475;52.464;13.590;2023-03-26T02:35:03;7.10;91.71
71627;DHT22;59475;52.464;13.590;2023-03-26T02:37:29;7.09;91.67
71627;DHT22;59475;52.464;13.590;2023-03-26T02:39:58;7.07;91.29
71627;DHT22;59475;52.464;13.590;2023-03-26T02:42:23;6.97;91.36
71627;DHT22;59475;52.464;13.590;2023-03-26T02:44:49;6.93;91.54
71627;DHT22;59475;52.464;13.590;2023-03-26T02:47:14;6.92;91.60
71627;DHT22;59475;52.464;13.590;2023-03-26T02:49:40;6.83;91.67
71627;DHT22;59475;52.464;13.590;2023-03-26T02:52:05;6.76;92.16
71627;DHT22;59475;52.464;13.590;2023-03-26T02:54:32;6.79;91.90
71627;DHT22;59475;52.464;13.590;2023-03-26T02:56:58;6.79;92.04
71627;DHT22;59475;52.464;13.590;2023-03-26T02:59:23;6.72;92.43
71627;DHT22;59475;52.464;13.590;2023-03-26T03:01:49;6.71;92.93
71627;DHT22;59475;52.464;13.590;2023-03-26T03:04:14;6.69;92.84
71627;DHT22;59475;52.464;13.590;2023-03-26T03:06:42;6.72;92.55
71627;DHT22;59475;52.464;13.590;2023-03-26T03:09:08;6.76;92.65
71627;DHT22;59475;52.464;13.590;2023-03-26T03:11:34;6.75;92.62
71627;DHT22;59475;52.464;13.590;2023-03-26T03:14:00;6.81;92.48
71627;DHT22;59475;52.464;13.590;2023-03-26T03:16:26;6.82;92.56
71627;DHT22;59475;52.464;13.590;2023-03-26T03:18:52;6.83;92.84
71627;DHT22;59475;52.464;13.590;2023-03-26T03:21:19;6.82;92.88
71627;DHT22;59475;52.464;13.590;2023-03-26T03:23:44;6.86;92.58
71627;DHT22;59475;52.464;13.590;2023-03-26T03:26:16;6.91;92.31
71627;DHT22;59475;52.464;13.590;2023-03-26T03:28:42;6.91;92.48
71627;DHT22;59475;52.464;13.590;2023-03-26T03:31:09;6.92;92.61
71627;DHT22;59475;52.464;13.590;2023-03-26T03:33:34;6.96;92.28
71627;DHT22;59475;52.464;13.590;2023-03-26T03:36:00;6.99;92.34
71627;DHT22;59475;52.464;13.590;2023-03-26T03:38:25;7.03;92.08
71627;DHT22;59475;52.464;13.590;2023-03-26T03:40:51;7.03;92.35
71627;DHT22;59475;52.464;13.590;2023-03-26T03:43:18;7.10;91.92
71627;DHT22;59475;52.464;13.590;2023-03-26T03:45:44;7.20;91.64
71627;DHT22;59475;52.464;13.590;2023-03-26T03:48:09;7.19;91.70
71627;DHT22;59475;52.464;13.590;2023-03-26T03:50:35;7.21;92.16
71627;DHT22;59475;52.464;13.590;2023-03-26T03:53:00;7.23;92.04
71627;DHT22;59475;52.464;13.590;2023-03-26T03:55:26;7.21;91.85
71627;DHT22;59475;52.464;13.590;2023-03-26T03:57:52;7.19;91.94
71627;DHT22;59475;52.464;13.590;2023-03-26T04:00:18;7.21;91.83
71627;DHT22;59475;52.464;13.590;2023-03-26T04:02:44;7.26;92.04
71627;DHT22;59475;52.464;13.590;2023-03-26T04:05:11;7.21;91.80
71627;DHT22;59475;52.464;13.590;2023-03-26T04:07:37;7.23;91.66
71627;DHT22;59475;52.464;13.590;2023-03-26T04:10:03;7.21;91.60
71627;DHT22;59475;52.464;13.590;2023-03-26T04:12:29;7.20;91.38
71627;DHT22;59475;52.464;13.590;2023-03-26T04:14:56;7.28;91.11
71627;DHT22;59475;52.464;13.590;2023-03-26T04:17:21;7.27;90.80
71627;DHT22;59475;52.464;13.590;2023-03-26T04:19:48;7.32;90.75
71627;DHT22;59475;52.464;13.590;2023-03-26T04:22:15;7.32;90.85
71627;DHT22;59475;52.464;13.590;2023-03-26T04:24:43;7.35;90.35
71627;DHT22;59475;52.464;13.590;2023-03-26T04:27:11;7.41;90.25
71627;DHT22;59475;52.464;13.590;2023-03-26T04:29:42;7.43;90.29
71627;DHT22;59475;52.464;13.590;2023-03-26T04:32:17;7.38;90.53
71627;DHT22;59475;52.464;13.590;2023-03-26T04:34:44;7.40;90.26
71627;DHT22;59475;52.464;13.590;2023-03-26T04:37:35;7.37;90.42
71627;DHT22;59475;52.464;13.590;2023-03-26T04:40:03;7.32;90.65
71627;DHT22;59475;52.464;13.590;2023-03-26T04:42:38;7.28;90.62
71627;DHT22;59475;52.464;13.590;2023-03-26T04:45:11;7.20;90.94
71627;DHT22;59475;52.464;13.590;2023-03-26T04:47:37;7.19;91.13
71627;DHT22;59475;52.464;13.590;2023-03-26T04:50:04;7.20;90.97
71627;DHT22;59475;52.464;13.590;2023-03-26T04:52:30;7.17;91.22
71627;DHT22;59475;52.464;13.590;2023-03-26T04:54:56;7.17;91.14
71627;DHT22;59475;52.464;13.590;2023-03-26T04:57:27;7.16;91.04
71627;DHT22;59475;52.464;13.590;2023-03-26T04:59:53;7.17;90.92
71627;DHT22;59475;52.464;13.590;2023-03-26T05:02:18;7.16;90.89
71627;DHT22;59475;52.464;13.590;2023-03-26T05:04:44;7.16;90.98
71627;DHT22;59475;52.464;13.590;2023-03-26T05:07:14;7.12;90.82
71627;DHT22;59475;52.464;13.590;2023-03-26T05:09:41;7.17;90.28
71627;DHT22;59475;52.464;13.590;2023-03-26T05:12:06;7.14;90.47
71627;DHT22;59475;52.464;13.590;2023-03-26T05:14:32;7.19;89.80
71627;DHT22;59475;52.464;13.590;2023-03-26T05:16:57;7.19;89.88
71627;DHT22;59475;52.464;13.590;2023-03-26T05:19:23;7.19;89.97
71627;DHT22;59475;52.464;13.590;2023-03-26T05:21:48;7.19;89.91
71627;DHT22;59475;52.464;13.590;2023-03-26T05:24:13;7.19;89.99
71627;DHT22;59475;52.464;13.590;2023-03-26T05:26:39;7.19;90.33
71627;DHT22;59475;52.464;13.590;2023-03-26T05:29:04;7.24;90.27
71627;DHT22;59475;52.464;13.590;2023-03-26T05:31:30;7.23;90.54
71627;DHT22;59475;52.464;13.590;2023-03-26T05:33:56;7.26;90.53
71627;DHT22;59475;52.464;13.590;2023-03-26T05:36:22;7.28;90.64
71627;DHT22;59475;52.464;13.590;2023-03-26T05:38:48;7.28;90.42
71627;DHT22;59475;52.464;13.590;2023-03-26T05:41:15;7.34;90.42
71627;DHT22;59475;52.464;13.590;2023-03-26T05:43:41;7.38;90.37
71627;DHT22;59475;52.464;13.590;2023-03-26T05:46:08;7.35;90.50
71627;DHT22;59475;52.464;13.590;2023-03-26T05:48:33;7.38;90.28
71627;DHT22;59475;52.464;13.590;2023-03-26T05:50:59;7.44;90.37
71627;DHT22;59475;52.464;13.590;2023-03-26T05:53:26;7.51;89.82
71627;DHT22;59475;52.464;13.590;2023-03-26T05:55:52;7.52;89.63
71627;DHT22;59475;52.464;13.590;2023-03-26T05:58:32;7.57;89.46
71627;DHT22;59475;52.464;13.590;2023-03-26T06:01:04;7.62;89.08
71627;DHT22;59475;52.464;13.590;2023-03-26T06:03:34;7.58;89.51
71627;DHT22;59475;52.464;13.590;2023-03-26T06:05:59;7.67;89.23
71627;DHT22;59475;52.464;13.590;2023-03-26T06:08:25;7.67;89.20
71627;DHT22;59475;52.464;13.590;2023-03-26T06:10:57;7.69;89.42
71627;DHT22;59475;52.464;13.590;2023-03-26T06:13:23;7.74;88.95
71627;DHT22;59475;52.464;13.590;2023-03-26T06:15:48;7.71;88.63
71627;DHT22;59475;52.464;13.590;2023-03-26T06:18:14;7.71;89.00
71627;DHT22;59475;52.464;13.590;2023-03-26T06:20:40;7.69;89.32
71627;DHT22;59475;52.464;13.590;2023-03-26T06:23:06;7.65;89.14
71627;DHT22;59475;52.464;13.590;2023-03-26T06:25:31;7.64;88.90
71627;DHT22;59475;52.464;13.590;2023-03-26T06:27:57;7.64;89.08
71627;DHT22;59475;52.464;13.590;2023-03-26T06:30:23;7.64;89.42
71627;DHT22;59475;52.464;13.590;2023-03-26T06:32:48;7.75;89.22
71627;DHT22;59475;52.464;13.590;2023-03-26T06:35:13;7.81;89.36
71627;DHT22;59475;52.464;13.590;2023-03-26T06:37:39;7.85;88.55
71627;DHT22;59475;52.464;13.590;2023-03-26T06:40:05;7.86;88.53
71627;DHT22;59475;52.464;13.590;2023-03-26T06:42:31;7.95;88.49
71627;DHT22;59475;52.464;13.590;2023-03-26T06:44:56;7.97;88.55
71627;DHT22;59475;52.464;13.590;2023-03-26T06:47:21;7.96;88.33
71627;DHT22;59475;52.464;13.590;2023-03-26T06:49:47;7.96;88.65
71627;DHT22;59475;52.464;13.590;2023-03-26T06:52:12;7.99;88.43
71627;DHT22;59475;52.464;13.590;2023-03-26T06:54:38;7.95;88.26
71627;DHT22;59475;52.464;13.590;2023-03-26T06:57:03;7.96;87.28
71627;DHT22;59475;52.464;13.590;2023-03-26T06:59:29;7.92;88.37
71627;DHT22;59475;52.464;13.590;2023-03-26T07:01:54;7.79;87.98
71627;DHT22;59475;52.464;13.590;2023-03-26T07:04:20;7.64;88.27
71627;DHT22;59475;52.464;13.590;2023-03-26T07:06:45;7.57;89.10
71627;DHT22;59475;52.464;13.590;2023-03-26T07:09:10;7.48;90.01
71627;DHT22;59475;52.464;13.590;2023-03-26T07:11:36;7.44;90.74
71627;DHT22;59475;52.464;13.590;2023-03-26T07:14:01;7.43;90.33
71627;DHT22;59475;52.464;13.590;2023-03-26T07:16:26;7.47;90.95
71627;DHT22;59475;52.464;13.590;2023-03-26T07:18:52;7.55;89.78
71627;DHT22;59475;52.464;13.590;2023-03-26T07:21:20;7.68;90.46
71627;DHT22;59475;52.464;13.590;2023-03-26T07:23:46;7.75;88.36
71627;DHT22;59475;52.464;13.590;2023-03-26T07:28:55;7.99;87.44
71627;DHT22;59475;52.464;13.590;2023-03-26T07:31:37;8.09;87.43
71627;DHT22;59475;52.464;13.590;2023-03-26T07:34:16;8.19;86.96
71627;DHT22;59475;52.464;13.590;2023-03-26T07:36:59;8.37;85.22
71627;DHT22;59475;52.464;13.590;2023-03-26T07:42:26;8.60;84.16
71627;DHT22;59475;52.464;13.590;2023-03-26T07:45:16;8.65;83.27
71627;DHT22;59475;52.464;13.590;2023-03-26T07:47:43;8.53;83.06
71627;DHT22;59475;52.464;13.590;2023-03-26T07:50:16;8.68;83.71
71627;DHT22;59475;52.464;13.590;2023-03-26T07:52:42;8.76;83.68
71627;DHT22;59475;52.464;13.590;2023-03-26T07:55:14;8.85;83.05
71627;DHT22;59475;52.464;13.590;2023-03-26T08:00:16;8.95;81.29
71627;DHT22;59475;52.464;13.590;2023-03-26T08:05:32;9.05;81.02
71627;DHT22;59475;52.464;13.590;2023-03-26T08:08:11;8.99;79.33
71627;DHT22;59475;52.464;13.590;2023-03-26T08:14:10;8.95;79.75
71627;DHT22;59475;52.464;13.590;2023-03-26T08:16:21;8.99;80.67
71627;DHT22;59475;52.464;13.590;2023-03-26T08:19:01;9.02;80.47
71627;DHT22;59475;52.464;13.590;2023-03-26T08:21:28;9.05;79.76
71627;DHT22;59475;52.464;13.590;2023-03-26T08:26:50;8.98;79.63
71627;DHT22;59475;52.464;13.590;2023-03-26T08:29:41;9.09;79.82
71627;DHT22;59475;52.464;13.590;2023-03-26T08:32:14;9.15;79.93
71627;DHT22;59475;52.464;13.590;2023-03-26T08:34:40;9.13;79.87
71627;DHT22;59475;52.464;13.590;2023-03-26T08:37:06;9.10;79.11
71627;DHT22;59475;52.464;13.590;2023-03-26T08:39:31;9.20;80.10
71627;DHT22;59475;52.464;13.590;2023-03-26T08:59:25;9.26;78.37
71627;DHT22;59475;52.464;13.590;2023-03-26T09:27:34;10.14;77.65
71627;DHT22;59475;52.464;13.590;2023-03-26T09:32:55;10.46;75.32
71627;DHT22;59475;52.464;13.590;2023-03-26T09:43:46;10.54;74.75
71627;DHT22;59475;52.464;13.590;2023-03-26T09:46:26;10.46;74.55
71627;DHT22;59475;52.464;13.590;2023-03-26T10:26:12;8.34;84.62
71627;DHT22;59475;52.464;13.590;2023-03-26T10:28:36;8.14;85.60
71627;DHT22;59475;52.464;13.590;2023-03-26T10:52:24;8.73;83.74
71627;DHT22;59475;52.464;13.590;2023-03-26T10:55:13;8.79;84.17
71627;DHT22;59475;52.464;13.590;2023-03-26T11:00:24;8.71;82.75
71627;DHT22;59475;52.464;13.590;2023-03-26T11:05:33;8.68;83.63
71627;DHT22;59475;52.464;13.590;2023-03-26T11:11:02;8.92;83.47
71627;DHT22;59475;52.464;13.590;2023-03-26T11:16:37;8.95;82.47
71627;DHT22;59475;52.464;13.590;2023-03-26T11:19:26;8.89;83.02
71627;DHT22;59475;52.464;13.590;2023-03-26T11:25:20;8.89;82.88
71627;DHT22;59475;52.464;13.590;2023-03-26T11:33:07;9.64;81.67
71627;DHT22;59475;52.464;13.590;2023-03-26T11:35:37;9.99;80.30
71627;DHT22;59475;52.464;13.590;2023-03-26T11:38:09;9.99;78.80
71627;DHT22;59475;52.464;13.590;2023-03-26T11:40:39;10.10;79.15
71627;DHT22;59475;52.464;13.590;2023-03-26T11:43:08;10.20;78.73
71627;DHT22;59475;52.464;13.590;2023-03-26T11:45:41;10.13;78.07
71627;DHT22;59475;52.464;13.590;2023-03-26T11:48:21;10.17;78.45
71627;DHT22;59475;52.464;13.590;2023-03-26T11:50:50;10.16;78.20
71627;DHT22;59475;52.464;13.590;2023-03-26T11:53:26;10.36;77.75
71627;DHT22;59475;52.464;13.590;2023-03-26T11:58:30;10.64;76.86
71627;DHT22;59475;52.464;13.590;2023-03-26T12:01:01;10.51;76.29
71627;DHT22;59475;52.464;13.590;2023-03-26T12:03:26;10.34;76.99
71627;DHT22;59475;52.464;13.590;2023-03-26T12:05:57;10.43;76.54
71627;DHT22;59475;52.464;13.590;2023-03-26T12:08:33;10.51;77.17
71627;DHT22;59475;52.464;13.590;2023-03-26T12:11:06;10.87;75.43
71627;DHT22;59475;52.464;13.590;2023-03-26T12:13:38;11.11;73.71
71627;DHT22;59475;52.464;13.590;2023-03-26T12:16:15;11.39;73.55
71627;DHT22;59475;52.464;13.590;2023-03-26T12:18:42;11.40;71.69
71627;DHT22;59475;52.464;13.590;2023-03-26T12:21:17;11.49;71.86
71627;DHT22;59475;52.464;13.590;2023-03-26T12:26:34;11.85;71.26
71627;DHT22;59475;52.464;13.590;2023-03-26T12:29:06;12.25;69.59
71627;DHT22;59475;52.464;13.590;2023-03-26T12:32:13;12.28;68.15
71627;DHT22;59475;52.464;13.590;2023-03-26T12:34:35;12.25;67.86
71627;DHT22;59475;52.464;13.590;2023-03-26T12:37:03;12.08;68.86
71627;DHT22;59475;52.464;13.590;2023-03-26T12:41:59;12.11;67.18
71627;DHT22;59475;52.464;13.590;2023-03-26T12:44:42;12.16;68.32
71627;DHT22;59475;52.464;13.590;2023-03-26T12:47:30;12.04;69.27
71627;DHT22;59475;52.464;13.590;2023-03-26T12:49:57;12.16;66.00
71627;DHT22;59475;52.464;13.590;2023-03-26T12:55:25;11.98;68.09
71627;DHT22;59475;52.464;13.590;2023-03-26T12:58:14;11.69;69.04
71627;DHT22;59475;52.464;13.590;2023-03-26T13:04:32;11.61;66.88
71627;DHT22;59475;52.464;13.590;2023-03-26T13:09:57;11.29;67.62
71627;DHT22;59475;52.464;13.590;2023-03-26T13:12:32;11.39;68.32
71627;DHT22;59475;52.464;13.590;2023-03-26T13:17:46;11.22;67.12
71627;DHT22;59475;52.464;13.590;2023-03-26T13:23:08;11.30;65.60
71627;DHT22;59475;52.464;13.590;2023-03-26T13:25:48;11.44;66.22
71627;DHT22;59475;52.464;13.590;2023-03-26T13:28:30;11.47;65.54
71627;DHT22;59475;52.464;13.590;2023-03-26T13:31:12;11.60;65.82
71627;DHT22;59475;52.464;13.590;2023-03-26T13:33:54;11.75;65.54
71627;DHT22;59475;52.464;13.590;2023-03-26T13:36:45;11.88;64.58
71627;DHT22;59475;52.464;13.590;2023-03-26T13:42:00;11.87;65.86
71627;DHT22;59475;52.464;13.590;2023-03-26T13:44:54;11.95;66.54
71627;DHT22;59475;52.464;13.590;2023-03-26T13:47:28;11.91;65.73
71627;DHT22;59475;52.464;13.590;2023-03-26T13:55:18;11.63;66.27
71627;DHT22;59475;52.464;13.590;2023-03-26T14:09:06;12.08;64.90
71627;DHT22;59475;52.464;13.590;2023-03-26T14:14:18;12.40;62.78
71627;DHT22;59475;52.464;13.590;2023-03-26T14:16:50;12.50;64.15
71627;DHT22;59475;52.464;13.590;2023-03-26T14:36:43;11.81;64.67
71627;DHT22;59475;52.464;13.590;2023-03-26T14:42:17;11.39;64.84
71627;DHT22;59475;52.464;13.590;2023-03-26T14:47:16;11.43;66.18
71627;DHT22;59475;52.464;13.590;2023-03-26T14:55:46;11.44;65.88
71627;DHT22;59475;52.464;13.590;2023-03-26T15:01:37;11.40;66.06
71627;DHT22;59475;52.464;13.590;2023-03-26T15:16:15;11.47;66.78
71627;DHT22;59475;52.464;13.590;2023-03-26T15:25:13;11.40;66.67
71627;DHT22;59475;52.464;13.590;2023-03-26T15:27:56;11.20;67.02
71627;DHT22;59475;52.464;13.590;2023-03-26T15:41:40;11.06;66.71
71627;DHT22;59475;52.464;13.590;2023-03-26T15:46:58;11.04;66.69
71627;DHT22;59475;52.464;13.590;2023-03-26T15:49:49;11.09;66.97
71627;DHT22;59475;52.464;13.590;2023-03-26T15:52:34;11.11;66.37
71627;DHT22;59475;52.464;13.590;2023-03-26T16:03:56;10.91;66.20
71627;DHT22;59475;52.464;13.590;2023-03-26T16:07:01;10.82;66.92
71627;DHT22;59475;52.464;13.590;2023-03-26T16:12:27;10.71;67.47
71627;DHT22;59475;52.464;13.590;2023-03-26T16:15:19;10.69;68.15
71627;DHT22;59475;52.464;13.590;2023-03-26T16:23:02;10.61;68.43
71627;DHT22;59475;52.464;13.590;2023-03-26T16:30:35;10.49;69.03
71627;DHT22;59475;52.464;13.590;2023-03-26T16:38:48;10.30;69.97
71627;DHT22;59475;52.464;13.590;2023-03-26T16:52:25;10.24;69.96
71627;DHT22;59475;52.464;13.590;2023-03-26T16:57:52;10.19;70.57
71627;DHT22;59475;52.464;13.590;2023-03-26T17:11:59;9.92;70.25
71627;DHT22;59475;52.464;13.590;2023-03-26T17:29:11;9.43;71.32
71627;DHT22;59475;52.464;13.590;2023-03-26T17:37:26;9.31;71.54
71627;DHT22;59475;52.464;13.590;2023-03-26T17:42:30;9.20;71.88
71627;DHT22;59475;52.464;13.590;2023-03-26T17:45:32;9.13;71.99
71627;DHT22;59475;52.464;13.590;2023-03-26T17:48:09;9.12;72.07
71627;DHT22;59475;52.464;13.590;2023-03-26T17:53:28;9.10;72.26
71627;DHT22;59475;52.464;13.590;2023-03-26T17:55:57;9.13;72.31
71627;DHT22;59475;52.464;13.590;2023-03-26T17:58:39;9.09;72.36
71627;DHT22;59475;52.464;13.590;2023-03-26T18:01:26;9.09;72.54
71627;DHT22;59475;52.464;13.590;2023-03-26T18:03:57;9.12;72.65
71627;DHT22;59475;52.464;13.590;2023-03-26T18:14:44;9.06;72.12
71627;DHT22;59475;52.464;13.590;2023-03-26T18:17:15;9.06;73.04
71627;DHT22;59475;52.464;13.590;2023-03-26T18:19:48;9.03;72.82
71627;DHT22;59475;52.464;13.590;2023-03-26T18:22:22;9.03;73.06
71627;DHT22;59475;52.464;13.590;2023-03-26T18:24:48;9.02;72.85
71627;DHT22;59475;52.464;13.590;2023-03-26T18:27:20;8.98;72.35
71627;DHT22;59475;52.464;13.590;2023-03-26T18:30:13;8.98;73.07
71627;DHT22;59475;52.464;13.590;2023-03-26T18:32:49;8.96;72.11
71627;DHT22;59475;52.464;13.590;2023-03-26T18:35:18;8.95;72.39
71627;DHT22;59475;52.464;13.590;2023-03-26T18:37:46;8.93;72.80
71627;DHT22;59475;52.464;13.590;2023-03-26T18:40:14;8.88;72.97
71627;DHT22;59475;52.464;13.590;2023-03-26T18:42:45;8.86;72.51
71627;DHT22;59475;52.464;13.590;2023-03-26T18:47:55;8.85;72.69
71627;DHT22;59475;52.464;13.590;2023-03-26T18:50:25;8.85;72.70
71627;DHT22;59475;52.464;13.590;2023-03-26T18:52:51;8.83;72.43
71627;DHT22;59475;52.464;13.590;2023-03-26T18:55:17;8.85;71.26
71627;DHT22;59475;52.464;13.590;2023-03-26T18:57:43;8.79;71.17
71627;DHT22;59475;52.464;13.590;2023-03-26T19:00:20;8.76;71.44
71627;DHT22;59475;52.464;13.590;2023-03-26T19:02:47;8.73;71.46
71627;DHT22;59475;52.464;13.590;2023-03-26T19:05:16;8.75;71.20
71627;DHT22;59475;52.464;13.590;2023-03-26T19:07:43;8.68;71.12
71627;DHT22;59475;52.464;13.590;2023-03-26T19:10:16;8.75;68.32
71627;DHT22;59475;52.464;13.590;2023-03-26T19:12:57;8.71;68.34
71627;DHT22;59475;52.464;13.590;2023-03-26T19:15:24;8.62;68.74
71627;DHT22;59475;52.464;13.590;2023-03-26T19:17:54;8.55;68.94
71627;DHT22;59475;52.464;13.590;2023-03-26T19:20:28;8.48;68.19
71627;DHT22;59475;52.464;13.590;2023-03-26T19:22:57;8.45;68.61
71627;DHT22;59475;52.464;13.590;2023-03-26T19:25:37;8.41;68.14
71627;DHT22;59475;52.464;13.590;2023-03-26T19:28:06;8.33;68.01
71627;DHT22;59475;52.464;13.590;2023-03-26T19:30:42;8.27;68.37
71627;DHT22;59475;52.464;13.590;2023-03-26T19:33:32;8.24;68.08
71627;DHT22;59475;52.464;13.590;2023-03-26T19:36:16;8.26;67.80
71627;DHT22;59475;52.464;13.590;2023-03-26T19:41:38;8.19;67.90
71627;DHT22;59475;52.464;13.590;2023-03-26T19:44:24;8.13;68.39
71627;DHT22;59475;52.464;13.590;2023-03-26T19:46:50;8.09;68.83
71627;DHT22;59475;52.464;13.590;2023-03-26T19:49:31;8.07;68.62
71627;DHT22;59475;52.464;13.590;2023-03-26T19:52:13;8.03;69.14
71627;DHT22;59475;52.464;13.590;2023-03-26T19:54:54;7.97;68.93
71627;DHT22;59475;52.464;13.590;2023-03-26T19:57:40;7.92;69.15
71627;DHT22;59475;52.464;13.590;2023-03-26T20:00:06;7.90;69.83
71627;DHT22;59475;52.464;13.590;2023-03-26T20:02:40;7.81;70.39
71627;DHT22;59475;52.464;13.590;2023-03-26T20:05:18;7.78;69.82
71627;DHT22;59475;52.464;13.590;2023-03-26T20:07:47;7.71;70.99
71627;DHT22;59475;52.464;13.590;2023-03-26T20:10:15;7.67;70.19
71627;DHT22;59475;52.464;13.590;2023-03-26T20:12:42;7.59;71.11
71627;DHT22;59475;52.464;13.590;2023-03-26T20:15:24;7.59;70.55
71627;DHT22;59475;52.464;13.590;2023-03-26T20:17:53;7.51;70.41
71627;DHT22;59475;52.464;13.590;2023-03-26T20:20:25;7.50;70.80
71627;DHT22;59475;52.464;13.590;2023-03-26T20:22:52;7.48;70.58
71627;DHT22;59475;52.464;13.590;2023-03-26T20:25:44;7.32;69.22
71627;DHT22;59475;52.464;13.590;2023-03-26T20:28:15;7.20;69.67
71627;DHT22;59475;52.464;13.590;2023-03-26T20:30:47;7.10;70.12
71627;DHT22;59475;52.464;13.590;2023-03-26T20:33:23;6.99;70.56
71627;DHT22;59475;52.464;13.590;2023-03-26T20:35:52;6.92;70.57
71627;DHT22;59475;52.464;13.590;2023-03-26T20:38:18;6.86;71.01
71627;DHT22;59475;52.464;13.590;2023-03-26T20:40:43;6.82;71.33
71627;DHT22;59475;52.464;13.590;2023-03-26T20:43:11;6.82;71.56
71627;DHT22;59475;52.464;13.590;2023-03-26T20:45:37;6.81;71.77
71627;DHT22;59475;52.464;13.590;2023-03-26T20:48:03;6.74;71.76
71627;DHT22;59475;52.464;13.590;2023-03-26T20:50:31;6.71;72.45
71627;DHT22;59475;52.464;13.590;2023-03-26T20:52:56;6.69;72.53
71627;DHT22;59475;52.464;13.590;2023-03-26T20:55:23;6.67;72.65
71627;DHT22;59475;52.464;13.590;2023-03-26T20:57:50;6.55;71.90
71627;DHT22;59475;52.464;13.590;2023-03-26T21:00:17;6.52;72.36
71627;DHT22;59475;52.464;13.590;2023-03-26T21:02:45;6.51;71.45
71627;DHT22;59475;52.464;13.590;2023-03-26T21:05:11;6.45;71.58
71627;DHT22;59475;52.464;13.590;2023-03-26T21:07:41;6.38;71.60
71627;DHT22;59475;52.464;13.590;2023-03-26T21:10:10;6.34;71.43
71627;DHT22;59475;52.464;13.590;2023-03-26T21:12:40;6.30;71.28
71627;DHT22;59475;52.464;13.590;2023-03-26T21:15:10;6.26;71.29
71627;DHT22;59475;52.464;13.590;2023-03-26T21:17:36;6.24;71.09
71627;DHT22;59475;52.464;13.590;2023-03-26T21:20:02;6.21;71.48
71627;DHT22;59475;52.464;13.590;2023-03-26T21:30:55;6.10;70.95
71627;DHT22;59475;52.464;13.590;2023-03-26T21:33:21;6.05;71.20
71627;DHT22;59475;52.464;13.590;2023-03-26T21:35:47;6.06;71.26
71627;DHT22;59475;52.464;13.590;2023-03-26T21:38:21;6.03;71.27
71627;DHT22;59475;52.464;13.590;2023-03-26T21:40:49;6.00;70.98
71627;DHT22;59475;52.464;13.590;2023-03-26T21:43:16;6.02;71.37
71627;DHT22;59475;52.464;13.590;2023-03-26T21:45:43;6.00;71.22
71627;DHT22;59475;52.464;13.590;2023-03-26T21:48:09;5.98;71.17
71627;DHT22;59475;52.464;13.590;2023-03-26T21:50:35;5.99;71.32
71627;DHT22;59475;52.464;13.590;2023-03-26T21:53:01;5.98;71.17
71627;DHT22;59475;52.464;13.590;2023-03-26T21:55:27;5.92;70.86
71627;DHT22;59475;52.464;13.590;2023-03-26T21:58:17;5.90;71.13
71627;DHT22;59475;52.464;13.590;2023-03-26T22:03:24;5.86;71.55
71627;DHT22;59475;52.464;13.590;2023-03-26T22:06:06;5.83;71.59
71627;DHT22;59475;52.464;13.590;2023-03-26T22:08:36;5.83;71.89